Time;durP1;ratioP1;P1;durP2;ratioP2;P2;SDS_P1;SDS_P2;PMS_P1;PMS_P2;Temp;Humidity;BMP_temperature;BMP_pressure;BME280_temperature;BME280_humidity;BME280_pressure;Samples;Min_cycle;Max_cycle;Signal;HPM_P1;HPM_P2
2021/10/17 00:01:11;;;;;;;13.73;4.40;;;;;;;10.42;73.20;102139.00;5092514;28;20072;-64
2021/10/17 00:03:36;;;;;;;12.80;5.53;;;;;;;10.41;73.26;102137.22;5096934;28;20029;-65
2021/10/17 00:06:02;;;;;;;10.48;4.55;;;;;;;10.41;72.24;102132.84;5097217;28;20465;-64
2021/10/17 00:08:27;;;;;;;13.88;4.72;;;;;;;10.45;72.92;102141.66;5091994;28;20126;-65
2021/10/17 00:10:53;;;;;;;14.32;4.50;;;;;;;10.47;72.96;102138.22;5094765;28;20021;-65
2021/10/17 00:13:18;;;;;;;12.70;5.25;;;;;;;10.50;73.06;102142.66;5092400;28;20039;-66
2021/10/17 00:15:43;;;;;;;10.68;4.68;;;;;;;10.50;71.05;102130.38;5101081;28;20044;-65
2021/10/17 00:18:09;;;;;;;14.43;6.25;;;;;;;10.53;71.92;102129.59;5096527;28;20099;-64
2021/10/17 00:20:36;;;;;;;14.32;4.78;;;;;;;10.53;72.39;102135.72;5098465;28;20039;-64
2021/10/17 00:23:02;;;;;;;12.30;4.80;;;;;;;10.56;71.45;102141.88;5106458;28;20028;-65
2021/10/17 00:25:27;;;;;;;11.60;4.95;;;;;;;10.58;71.64;102134.91;5101615;28;20051;-64
2021/10/17 00:27:54;;;;;;;11.27;4.97;;;;;;;10.60;72.48;102136.69;5102269;28;20089;-65
2021/10/17 00:30:19;;;;;;;9.95;5.25;;;;;;;10.61;71.55;102137.59;5091777;28;20610;-65
2021/10/17 00:32:45;;;;;;;18.45;5.13;;;;;;;10.66;70.84;102136.84;5095263;28;20040;-64
2021/10/17 00:35:12;;;;;;;14.73;5.32;;;;;;;10.69;71.08;102138.63;5100017;28;20044;-64
2021/10/17 00:37:38;;;;;;;14.05;4.70;;;;;;;10.72;70.83;102142.19;5100192;28;20034;-64
2021/10/17 00:40:10;;;;;;;12.55;5.25;;;;;;;10.72;71.96;102134.31;5088249;28;20028;-65
2021/10/17 00:42:37;;;;;;;15.90;5.00;;;;;;;10.75;70.79;102135.22;5099237;28;20039;-65
2021/10/17 00:45:06;;;;;;;12.73;4.95;;;;;;;10.75;70.38;102130.84;5095378;28;20391;-63
2021/10/17 00:47:32;;;;;;;11.82;5.03;;;;;;;10.78;70.42;102132.66;5098399;28;20025;-65
2021/10/17 00:49:57;;;;;;;12.60;5.15;;;;;;;10.79;71.46;102130.03;5094995;28;20039;-64
2021/10/17 00:52:23;;;;;;;12.10;4.95;;;;;;;10.78;71.15;102136.16;5095537;28;20024;-65
2021/10/17 00:54:48;;;;;;;10.98;5.07;;;;;;;10.81;70.33;102117.84;5094581;28;20328;-65
2021/10/17 00:57:15;;;;;;;12.15;5.22;;;;;;;10.82;70.05;102131.84;5098653;28;20047;-67
2021/10/17 00:59:41;;;;;;;12.50;5.18;;;;;;;10.81;70.84;102125.72;5075314;28;20036;-65
2021/10/17 01:02:07;;;;;;;15.20;4.85;;;;;;;10.86;70.88;102125.78;5093042;28;20038;-64
2021/10/17 01:04:36;;;;;;;11.27;5.45;;;;;;;10.85;70.43;102122.28;5097548;28;20036;-65
2021/10/17 01:07:02;;;;;;;12.18;4.95;;;;;;;10.86;71.10;102120.53;5092422;28;20033;-65
2021/10/17 01:09:28;;;;;;;15.98;5.65;;;;;;;10.85;72.00;102122.28;5090564;28;20027;-64
2021/10/17 01:11:53;;;;;;;10.77;5.05;;;;;;;10.83;73.22;102118.75;5096680;28;20092;-65
2021/10/17 01:14:20;;;;;;;11.65;5.10;;;;;;;10.80;71.61;102117.78;5094940;28;20040;-64
2021/10/17 01:16:47;;;;;;;16.27;5.40;;;;;;;10.79;71.83;102114.25;5096315;28;20058;-64
2021/10/17 01:19:13;;;;;;;13.73;4.93;;;;;;;10.78;70.47;102114.25;5092623;28;20098;-65
2021/10/17 01:21:39;;;;;;;12.38;5.13;;;;;;;10.77;70.15;102115.97;5102656;28;20068;-65
2021/10/17 01:24:06;;;;;;;13.77;5.32;;;;;;;10.80;71.01;102112.53;5094554;28;20053;-65
2021/10/17 01:26:32;;;;;;;16.88;5.63;;;;;;;10.82;71.24;102113.44;5093637;28;20036;-65
2021/10/17 01:28:57;;;;;;;15.93;5.25;;;;;;;10.83;71.59;102108.22;5097671;28;20051;-65
2021/10/17 01:31:35;;;;;;;11.80;5.38;;;;;;;10.84;71.26;102096.81;5092812;28;20115;-65
2021/10/17 01:34:01;;;;;;;14.55;5.38;;;;;;;10.86;72.13;102110.00;5092549;28;20036;-65
2021/10/17 01:36:27;;;;;;;12.75;4.97;;;;;;;10.80;72.82;102110.78;5095585;28;20129;-64
2021/10/17 01:38:52;;;;;;;12.07;4.90;;;;;;;10.78;72.15;102107.25;5092425;28;20024;-64
2021/10/17 01:41:18;;;;;;;14.27;5.88;;;;;;;10.77;72.07;102109.84;5080058;28;20066;-64
2021/10/17 01:43:43;;;;;;;11.23;5.28;;;;;;;10.75;71.78;102106.31;5095268;28;20024;-64
2021/10/17 01:46:09;;;;;;;13.70;5.70;;;;;;;10.74;70.82;102110.69;5096114;28;21135;-65
2021/10/17 01:48:34;;;;;;;17.45;5.88;;;;;;;10.73;71.85;102098.38;5091910;28;20052;-65
2021/10/17 01:50:59;;;;;;;14.40;5.68;;;;;;;10.72;72.38;102104.53;5090550;28;20086;-64
2021/10/17 01:53:28;;;;;;;12.82;5.85;;;;;;;10.68;73.00;102106.19;5088326;28;20033;-64
2021/10/17 01:55:57;;;;;;;13.23;5.60;;;;;;;10.70;71.75;102104.47;5099758;28;20059;-65
2021/10/17 01:58:22;;;;;;;13.38;5.70;;;;;;;10.72;71.59;102097.50;5093502;28;20023;-65
2021/10/17 02:00:47;;;;;;;15.32;5.50;;;;;;;10.74;72.08;102102.81;5091485;28;20066;-65
2021/10/17 02:03:13;;;;;;;10.48;5.30;;;;;;;10.73;71.97;102101.00;5090309;28;20032;-65
2021/10/17 02:05:38;;;;;;;11.63;5.30;;;;;;;10.72;72.18;102100.13;5092431;28;20060;-64
2021/10/17 02:08:03;;;;;;;14.48;6.13;;;;;;;10.72;72.90;102094.00;5091938;28;20028;-65
2021/10/17 02:10:29;;;;;;;12.88;5.90;;;;;;;10.72;73.03;102097.50;5089137;28;20050;-65
2021/10/17 02:12:54;;;;;;;15.23;5.95;;;;;;;10.72;72.64;102094.00;5094758;28;20048;-65
2021/10/17 02:15:19;;;;;;;16.95;7.07;;;;;;;10.71;72.02;102092.22;5093647;28;20032;-65
2021/10/17 02:17:46;;;;;;;13.15;6.30;;;;;;;10.74;70.37;102092.28;5095401;28;20040;-65
2021/10/17 02:20:12;;;;;;;12.23;5.80;;;;;;;10.74;71.15;102092.28;5093121;28;20036;-64
2021/10/17 02:22:37;;;;;;;13.63;5.93;;;;;;;10.74;71.22;102092.28;5097865;28;20032;-64
2021/10/17 02:25:03;;;;;;;14.85;5.57;;;;;;;10.73;71.08;102095.75;5100788;28;20081;-65
2021/10/17 02:27:29;;;;;;;14.40;6.30;;;;;;;10.72;72.07;102087.00;5093647;28;20029;-65
2021/10/17 02:29:54;;;;;;;16.00;6.10;;;;;;;10.72;70.75;102087.00;5074953;28;20043;-64
2021/10/17 02:32:20;;;;;;;12.32;5.78;;;;;;;10.74;71.29;102092.28;5096725;28;20036;-65
2021/10/17 02:34:45;;;;;;;15.15;5.97;;;;;;;10.73;72.24;102093.13;5095741;28;20135;-65
2021/10/17 02:37:11;;;;;;;13.43;6.07;;;;;;;10.73;71.63;102091.38;5096314;28;20032;-65
2021/10/17 02:39:36;;;;;;;17.75;6.40;;;;;;;10.73;70.82;102087.88;5095887;28;20032;-65
2021/10/17 02:42:02;;;;;;;16.17;5.95;;;;;;;10.75;70.86;102088.78;5099081;28;20033;-65
2021/10/17 02:44:27;;;;;;;11.75;6.97;;;;;;;10.73;71.48;102078.22;5098313;28;20028;-64
2021/10/17 02:46:53;;;;;;;12.68;6.18;;;;;;;10.75;70.82;102080.00;5099307;28;20126;-64
2021/10/17 02:49:18;;;;;;;17.85;6.30;;;;;;;10.76;70.71;102077.41;5089029;28;20032;-65
2021/10/17 02:51:44;;;;;;;13.43;6.57;;;;;;;10.76;72.22;102071.28;5075447;28;20045;-65
2021/10/17 02:54:09;;;;;;;15.82;6.43;;;;;;;10.73;72.50;102078.22;5099096;28;20028;-64
2021/10/17 02:56:35;;;;;;;18.90;6.63;;;;;;;10.72;71.12;102065.97;5092441;28;20121;-65
2021/10/17 02:59:00;;;;;;;14.02;6.57;;;;;;;10.72;71.47;102067.72;5091361;28;20040;-65
2021/10/17 03:01:26;;;;;;;14.38;6.45;;;;;;;10.72;71.67;102070.34;5095320;28;20032;-65
2021/10/17 03:03:51;;;;;;;17.50;7.05;;;;;;;10.72;72.12;102070.34;5093745;28;20044;-64
2021/10/17 03:06:17;;;;;;;17.77;7.18;;;;;;;10.71;71.99;102066.81;5091733;28;20135;-65
2021/10/17 03:08:42;;;;;;;13.65;6.75;;;;;;;10.71;71.50;102063.31;5089863;28;20043;-64
2021/10/17 03:11:08;;;;;;;15.10;6.97;;;;;;;10.71;70.75;102051.03;5092012;28;20104;-65
2021/10/17 03:13:33;;;;;;;18.50;6.72;;;;;;;10.71;71.74;102058.03;5093774;28;20107;-65
2021/10/17 03:15:59;;;;;;;17.60;7.05;;;;;;;10.69;72.02;102059.75;5093077;28;20036;-64
2021/10/17 03:18:25;;;;;;;14.32;6.13;;;;;;;10.68;72.07;102057.97;5089574;28;20059;-64
2021/10/17 03:20:50;;;;;;;18.35;7.03;;;;;;;10.65;72.21;102056.19;5089213;28;20044;-64
2021/10/17 03:23:15;;;;;;;14.65;6.80;;;;;;;10.65;71.74;102060.56;5099538;28;20099;-65
2021/10/17 03:25:41;;;;;;;22.00;7.47;;;;;;;10.65;71.79;102058.81;5099597;28;20044;-64
2021/10/17 03:28:06;;;;;;;16.15;6.93;;;;;;;10.65;72.36;102056.19;5093493;28;20058;-65
2021/10/17 03:30:31;;;;;;;14.68;6.40;;;;;;;10.68;71.98;102050.09;5091798;28;20043;-65
2021/10/17 03:32:57;;;;;;;16.70;7.95;;;;;;;10.67;72.23;102049.22;5106795;28;20036;-67
2021/10/17 03:35:22;;;;;;;20.27;7.50;;;;;;;10.66;71.64;102049.19;5103589;28;20032;-64
2021/10/17 03:37:47;;;;;;;17.75;7.70;;;;;;;10.66;72.43;102047.47;5105596;28;20053;-65
2021/10/17 03:40:13;;;;;;;16.23;8.02;;;;;;;10.65;72.16;102035.16;5094784;28;20056;-65
2021/10/17 03:42:38;;;;;;;13.30;7.88;;;;;;;10.63;72.46;102034.25;5093742;28;20032;-65
2021/10/17 03:45:05;;;;;;;23.67;8.90;;;;;;;10.63;72.47;102038.63;5095645;28;20101;-65
2021/10/17 03:47:30;;;;;;;18.30;8.98;;;;;;;10.62;72.18;102036.84;5102764;28;20782;-64
2021/10/17 03:49:55;;;;;;;18.73;8.73;;;;;;;10.61;73.48;102037.72;5100847;28;20023;-64
2021/10/17 03:52:21;;;;;;;25.55;8.50;;;;;;;10.59;72.82;102036.81;5105237;28;20036;-64
2021/10/17 03:54:47;;;;;;;17.67;8.90;;;;;;;10.57;73.77;102036.78;5100603;28;20040;-64
2021/10/17 03:57:12;;;;;;;22.42;8.82;;;;;;;10.57;72.93;102043.75;5094070;28;20051;-65
2021/10/17 03:59:37;;;;;;;16.70;9.02;;;;;;;10.56;72.79;102039.38;5094802;28;20032;-65
2021/10/17 04:02:03;;;;;;;24.52;8.68;;;;;;;10.55;72.38;102033.25;5108353;28;20053;-65
2021/10/17 04:04:28;;;;;;;23.55;9.10;;;;;;;10.58;73.25;102038.53;5078492;28;20028;-65
2021/10/17 04:06:53;;;;;;;18.02;9.00;;;;;;;10.57;72.83;102031.53;5110097;28;20096;-65
2021/10/17 04:09:19;;;;;;;17.05;8.75;;;;;;;10.58;73.29;102029.78;5096061;28;20070;-65
2021/10/17 04:11:46;;;;;;;20.50;8.77;;;;;;;10.57;73.32;102025.38;5095606;28;20039;-65
2021/10/17 04:14:13;;;;;;;20.55;8.93;;;;;;;10.56;73.16;102031.50;5096281;28;20047;-65
2021/10/17 04:16:39;;;;;;;24.50;9.93;;;;;;;10.55;73.54;102028.00;5078488;28;20032;-65
2021/10/17 04:19:04;;;;;;;24.00;9.73;;;;;;;10.57;73.29;102025.38;5085625;28;20032;-64
2021/10/17 04:21:30;;;;;;;25.60;10.25;;;;;;;10.59;73.66;102028.94;5098074;28;20050;-65
2021/10/17 04:23:56;;;;;;;21.95;9.13;;;;;;;10.57;72.52;102023.66;5094059;28;20050;-64
2021/10/17 04:26:21;;;;;;;20.15;9.77;;;;;;;10.58;73.47;102024.53;5089670;28;20048;-65
2021/10/17 04:28:47;;;;;;;22.42;10.07;;;;;;;10.56;73.72;102027.13;5105356;28;20054;-65
2021/10/17 04:31:13;;;;;;;19.55;9.60;;;;;;;10.58;73.75;102024.53;5108222;28;20065;-65
2021/10/17 04:33:38;;;;;;;24.33;10.10;;;;;;;10.60;74.08;102035.94;5094840;28;20031;-65
2021/10/17 04:36:04;;;;;;;25.15;10.35;;;;;;;10.58;73.51;102033.28;5098936;28;20475;-64
2021/10/17 04:38:30;;;;;;;17.15;9.55;;;;;;;10.56;72.57;102036.75;5100267;28;20062;-65
2021/10/17 04:40:55;;;;;;;21.92;9.90;;;;;;;10.56;73.30;102029.75;5092985;28;20074;-65
2021/10/17 04:43:21;;;;;;;21.40;9.45;;;;;;;10.60;72.88;102036.81;5090374;28;20035;-65
2021/10/17 04:45:46;;;;;;;20.77;8.82;;;;;;;10.61;73.31;102038.59;5103718;28;20448;-64
2021/10/17 04:48:12;;;;;;;23.70;9.85;;;;;;;10.61;72.73;102043.84;5126346;28;20028;-64
2021/10/17 04:50:37;;;;;;;21.27;9.48;;;;;;;10.60;72.84;102044.69;5095903;28;20032;-64
2021/10/17 04:53:03;;;;;;;22.02;9.18;;;;;;;10.64;72.27;102040.38;5105499;28;20058;-65
2021/10/17 04:55:29;;;;;;;21.33;9.18;;;;;;;10.65;73.17;102042.19;5101066;28;20473;-64
2021/10/17 04:57:54;;;;;;;22.67;9.30;;;;;;;10.66;71.96;102031.69;5099970;28;20032;-65
2021/10/17 05:00:19;;;;;;;17.65;9.25;;;;;;;10.65;71.42;102037.78;5097583;28;20036;-64
2021/10/17 05:02:45;;;;;;;21.23;9.77;;;;;;;10.67;71.77;102038.69;5097726;28;20036;-65
2021/10/17 05:05:10;;;;;;;22.42;8.75;;;;;;;10.67;71.87;102037.81;5100885;28;20039;-65
2021/10/17 05:07:35;;;;;;;20.05;8.90;;;;;;;10.66;72.43;102044.84;5099508;28;20094;-65
2021/10/17 05:10:01;;;;;;;22.13;9.10;;;;;;;10.67;72.70;102045.72;5100326;28;20044;-64
2021/10/17 05:12:26;;;;;;;20.00;9.25;;;;;;;10.69;73.02;102046.63;5103232;28;20113;-64
2021/10/17 05:14:52;;;;;;;21.02;8.77;;;;;;;10.67;71.66;102043.97;5089021;28;20036;-64
2021/10/17 05:17:17;;;;;;;20.30;8.52;;;;;;;10.67;72.55;102043.97;5091371;28;20033;-65
2021/10/17 05:19:42;;;;;;;19.08;8.63;;;;;;;10.68;72.24;102043.13;5099313;28;20440;-65
2021/10/17 05:22:08;;;;;;;19.80;8.88;;;;;;;10.67;72.21;102046.59;5102856;28;20032;-64
2021/10/17 05:24:33;;;;;;;21.42;9.55;;;;;;;10.70;72.80;102040.50;5106526;28;20123;-64
2021/10/17 05:26:58;;;;;;;24.45;9.23;;;;;;;10.69;72.18;102039.59;5105969;28;20023;-65
2021/10/17 05:29:24;;;;;;;18.10;9.07;;;;;;;10.69;72.01;102038.72;5086732;28;20363;-65
2021/10/17 05:31:49;;;;;;;16.02;7.97;;;;;;;10.72;72.96;102041.44;5088941;28;20028;-65
2021/10/17 05:34:14;;;;;;;20.88;8.73;;;;;;;10.71;73.02;102045.78;5091165;28;20085;-64
2021/10/17 05:36:40;;;;;;;21.42;8.98;;;;;;;10.69;73.21;102050.13;5069503;28;20058;-66
2021/10/17 05:39:05;;;;;;;23.80;9.75;;;;;;;10.67;73.92;102050.97;5099654;28;20054;-66
2021/10/17 05:41:31;;;;;;;24.45;9.38;;;;;;;10.64;73.94;102037.75;5105375;28;20808;-65
2021/10/17 05:43:57;;;;;;;21.10;9.95;;;;;;;10.64;73.30;102053.53;5098721;28;20040;-64
2021/10/17 05:46:22;;;;;;;25.27;10.43;;;;;;;10.64;72.96;102043.00;5093766;28;20189;-65
2021/10/17 05:48:47;;;;;;;24.55;9.23;;;;;;;10.63;72.97;102042.13;5089504;28;20506;-65
2021/10/17 05:51:13;;;;;;;24.83;9.70;;;;;;;10.63;74.00;102043.91;5082308;28;20040;-65
2021/10/17 05:53:38;;;;;;;22.27;9.75;;;;;;;10.62;74.29;102044.75;5103725;28;20040;-65
2021/10/17 05:56:04;;;;;;;18.95;9.25;;;;;;;10.61;73.00;102057.00;5091193;28;20070;-65
2021/10/17 05:58:29;;;;;;;19.52;9.93;;;;;;;10.63;74.08;102057.03;5110880;28;20491;-64
2021/10/17 06:00:54;;;;;;;21.95;10.00;;;;;;;10.60;73.64;102062.22;5101213;28;20027;-65
2021/10/17 06:03:20;;;;;;;22.40;9.88;;;;;;;10.60;73.08;102052.59;5104933;28;20505;-65
2021/10/17 06:05:47;;;;;;;19.95;9.93;;;;;;;10.61;72.60;102066.63;5079648;28;20062;-65
2021/10/17 06:08:13;;;;;;;21.92;9.40;;;;;;;10.62;72.69;102065.75;5101589;28;20111;-64
2021/10/17 06:10:40;;;;;;;19.88;9.07;;;;;;;10.62;72.94;102063.13;5092477;28;20056;-66
2021/10/17 06:13:06;;;;;;;22.45;9.65;;;;;;;10.65;72.94;102061.44;5091891;28;20042;-65
2021/10/17 06:15:31;;;;;;;22.45;9.38;;;;;;;10.66;72.18;102062.31;5096392;28;20055;-65
2021/10/17 06:17:56;;;;;;;23.17;9.82;;;;;;;10.65;72.96;102076.34;5083607;28;20042;-64
2021/10/17 06:20:22;;;;;;;21.80;9.63;;;;;;;10.65;72.87;102071.97;5099567;28;20078;-65
2021/10/17 06:22:47;;;;;;;22.77;9.98;;;;;;;10.69;72.85;102078.16;5092892;28;20024;-64
2021/10/17 06:25:13;;;;;;;20.90;9.07;;;;;;;10.71;72.43;102079.06;5101665;28;20044;-64
2021/10/17 06:27:38;;;;;;;21.85;9.02;;;;;;;10.72;72.04;102080.84;5103242;28;20033;-65
2021/10/17 06:30:04;;;;;;;16.92;8.20;;;;;;;10.74;72.64;102079.13;5092537;28;20032;-64
2021/10/17 06:32:29;;;;;;;18.75;8.65;;;;;;;10.75;72.48;102082.63;5053377;28;20028;-65
2021/10/17 06:34:54;;;;;;;19.38;7.97;;;;;;;10.75;71.94;102091.41;5090045;28;20527;-65
2021/10/17 06:37:20;;;;;;;18.60;7.78;;;;;;;10.76;71.32;102087.94;5088411;28;20040;-65
2021/10/17 06:39:45;;;;;;;15.57;7.95;;;;;;;10.77;71.70;102089.69;5093359;28;20072;-65
2021/10/17 06:42:12;;;;;;;18.63;7.72;;;;;;;10.78;71.57;102088.84;5103522;28;20407;-65
2021/10/17 06:44:38;;;;;;;21.30;8.93;;;;;;;10.79;72.14;102094.97;5094922;28;20625;-65
2021/10/17 06:47:03;;;;;;;18.52;7.82;;;;;;;10.82;72.10;102087.16;5094131;28;20056;-64
2021/10/17 06:49:29;;;;;;;17.58;7.55;;;;;;;10.84;72.13;102085.44;5098856;28;20032;-64
2021/10/17 06:51:54;;;;;;;20.02;8.77;;;;;;;10.86;72.09;102081.09;5084702;28;20533;-64
2021/10/17 06:54:19;;;;;;;19.25;8.43;;;;;;;10.86;71.43;102083.72;5104868;28;20036;-65
2021/10/17 06:56:46;;;;;;;15.88;7.80;;;;;;;10.85;71.45;102077.56;5096280;28;20112;-65
2021/10/17 06:59:12;;;;;;;18.70;7.90;;;;;;;10.86;72.35;102081.09;5101302;28;20028;-65
2021/10/17 07:01:38;;;;;;;15.75;7.65;;;;;;;10.85;72.02;102084.56;5095707;28;20051;-64
2021/10/17 07:04:03;;;;;;;17.55;7.38;;;;;;;10.88;72.81;102079.38;5106322;28;20032;-65
2021/10/17 07:06:29;;;;;;;21.67;7.82;;;;;;;10.89;73.53;102083.78;5100491;28;20260;-64
2021/10/17 07:08:54;;;;;;;17.80;7.20;;;;;;;10.91;72.60;102084.69;5106176;28;20028;-65
2021/10/17 07:11:19;;;;;;;19.00;8.32;;;;;;;10.95;72.15;102085.63;5094898;28;20039;-65
2021/10/17 07:13:45;;;;;;;19.80;7.30;;;;;;;10.96;71.77;102082.13;5072709;28;20039;-65
2021/10/17 07:16:10;;;;;;;21.63;7.90;;;;;;;10.98;72.05;102078.66;5081292;28;20043;-65
2021/10/17 07:18:35;;;;;;;19.20;7.30;;;;;;;11.02;72.74;102082.22;5092962;28;20025;-64
2021/10/17 07:21:01;;;;;;;17.90;7.32;;;;;;;11.04;72.22;102085.75;5094929;28;20067;-66
2021/10/17 07:23:26;;;;;;;16.30;7.55;;;;;;;11.03;71.79;102081.38;5104338;28;20055;-66
2021/10/17 07:25:52;;;;;;;18.25;7.57;;;;;;;11.08;72.42;102074.44;5108231;28;20031;-64
2021/10/17 07:28:17;;;;;;;16.42;6.78;;;;;;;11.07;72.17;102084.06;5110306;28;20041;-64
2021/10/17 07:30:43;;;;;;;14.10;6.88;;;;;;;11.07;72.33;102085.81;5108909;28;20162;-65
2021/10/17 07:33:08;;;;;;;20.38;7.47;;;;;;;11.09;71.77;102084.97;5098268;28;20103;-64
2021/10/17 07:35:34;;;;;;;14.90;6.93;;;;;;;11.14;72.74;102086.81;5094681;28;20039;-65
2021/10/17 07:38:00;;;;;;;20.73;7.53;;;;;;;11.21;72.26;102086.00;5093703;28;20032;-65
2021/10/17 07:40:26;;;;;;;15.45;7.28;;;;;;;11.24;72.03;102091.34;5098793;28;20024;-65
2021/10/17 07:42:51;;;;;;;19.98;7.50;;;;;;;11.27;71.80;102084.38;5093249;28;20037;-65
2021/10/17 07:45:17;;;;;;;18.67;7.38;;;;;;;11.31;72.31;102093.22;5088608;28;20041;-65
2021/10/17 07:47:42;;;;;;;19.60;7.18;;;;;;;11.37;72.48;102092.41;5099497;28;20042;-65
2021/10/17 07:50:09;;;;;;;14.85;6.95;;;;;;;11.39;71.18;102099.47;5083744;28;20020;-65
2021/10/17 07:52:36;;;;;;;18.90;7.18;;;;;;;11.46;70.60;102098.69;5089488;28;20043;-65
2021/10/17 07:55:02;;;;;;;15.48;7.10;;;;;;;11.48;70.83;102099.59;5096938;28;20032;-65
2021/10/17 07:57:28;;;;;;;15.68;7.30;;;;;;;11.52;70.40;102090.00;5099166;28;20032;-64
2021/10/17 07:59:53;;;;;;;16.15;7.90;;;;;;;11.55;69.76;102095.31;5101959;28;20047;-65
2021/10/17 08:02:18;;;;;;;18.10;7.40;;;;;;;11.61;69.61;102095.41;5092894;28;20036;-65
2021/10/17 08:04:48;;;;;;;18.50;7.57;;;;;;;11.64;69.59;102086.66;5099234;28;20058;-65
2021/10/17 08:07:15;;;;;;;16.75;7.18;;;;;;;11.63;69.44;102096.31;5098654;28;20068;-64
2021/10/17 08:09:41;;;;;;;15.70;6.90;;;;;;;11.65;69.32;102086.69;5100867;28;20028;-65
2021/10/17 08:12:06;;;;;;;13.15;6.82;;;;;;;11.70;69.23;102094.63;5088607;28;20039;-64
2021/10/17 08:14:32;;;;;;;12.98;7.22;;;;;;;11.71;68.12;102092.03;5095873;28;20033;-65
2021/10/17 08:16:57;;;;;;;19.23;7.82;;;;;;;11.74;66.90;102091.19;5095733;28;20044;-66
2021/10/17 08:19:23;;;;;;;14.75;6.72;;;;;;;11.75;67.10;102090.31;5098902;28;20036;-65
2021/10/17 08:21:48;;;;;;;13.82;7.28;;;;;;;11.76;66.71;102092.09;5078718;28;20048;-65
2021/10/17 08:24:13;;;;;;;14.48;6.80;;;;;;;11.85;67.16;102091.31;5091583;28;20135;-65
2021/10/17 08:26:40;;;;;;;16.02;6.93;;;;;;;11.89;66.60;102095.78;5095387;28;20037;-65
2021/10/17 08:29:05;;;;;;;14.32;6.32;;;;;;;11.95;67.02;102095.88;5090095;28;20072;-65
2021/10/17 08:31:31;;;;;;;16.10;6.55;;;;;;;12.02;66.31;102099.47;5101191;28;20060;-65
2021/10/17 08:33:56;;;;;;;16.58;6.10;;;;;;;12.12;65.57;102090.84;5098133;28;20033;-66
2021/10/17 08:36:21;;;;;;;13.18;6.25;;;;;;;12.11;64.86;102089.03;5085405;28;20051;-64
2021/10/17 08:38:47;;;;;;;18.63;6.93;;;;;;;12.15;65.34;102088.22;5089162;28;20043;-66
2021/10/17 08:41:15;;;;;;;16.92;6.03;;;;;;;12.19;64.90;102103.22;5089783;28;20148;-65
2021/10/17 08:43:41;;;;;;;18.55;6.57;;;;;;;12.20;65.28;102090.91;5090364;28;20028;-65
2021/10/17 08:46:09;;;;;;;15.07;6.72;;;;;;;12.17;65.55;102089.09;5081516;28;20074;-65
2021/10/17 08:48:36;;;;;;;16.95;6.40;;;;;;;12.18;65.97;102092.66;5103441;28;20035;-66
2021/10/17 08:51:04;;;;;;;15.27;6.90;;;;;;;12.21;66.51;102090.03;5096382;28;20040;-68
2021/10/17 08:53:30;;;;;;;18.00;6.20;;;;;;;12.28;67.27;102092.75;5092232;28;20025;-66
2021/10/17 08:55:55;;;;;;;14.15;6.50;;;;;;;12.31;67.75;102091.03;5092041;28;20035;-65
2021/10/17 08:58:21;;;;;;;15.20;7.05;;;;;;;12.44;67.39;102091.19;5097704;28;20048;-65
2021/10/17 09:00:46;;;;;;;14.38;6.72;;;;;;;12.52;66.58;102091.25;5096659;28;20031;-65
2021/10/17 09:03:12;;;;;;;14.98;6.57;;;;;;;12.63;66.15;102094.00;5096966;28;20035;-64
2021/10/17 09:05:39;;;;;;;15.90;7.10;;;;;;;12.73;65.41;102089.72;5080337;28;20100;-63
2021/10/17 09:08:08;;;;;;;14.90;6.68;;;;;;;12.75;65.31;102087.97;5097731;28;20036;-64
2021/10/17 09:10:35;;;;;;;17.50;6.53;;;;;;;12.87;66.08;102088.06;5097539;28;20120;-64
2021/10/17 09:13:13;;;;;;;18.23;6.80;;;;;;;12.86;65.64;102094.22;5100716;28;20087;-63
2021/10/17 09:15:39;;;;;;;19.23;7.50;;;;;;;12.85;65.83;102098.63;5090702;28;20067;-64
2021/10/17 09:18:07;;;;;;;15.05;7.35;;;;;;;12.85;64.96;102100.34;5092085;28;20036;-64
2021/10/17 09:20:50;;;;;;;18.40;7.18;;;;;;;12.75;64.42;102090.59;5095497;28;20044;-63
2021/10/17 09:23:21;;;;;;;17.40;7.40;;;;;;;12.67;64.81;102093.16;5092483;28;20064;-65
2021/10/17 09:25:47;;;;;;;12.50;6.50;;;;;;;12.62;64.99;102087.84;5089558;28;20036;-64
2021/10/17 09:28:17;;;;;;;15.52;7.60;;;;;;;12.64;65.78;102094.00;5089578;28;20062;-65
2021/10/17 09:30:43;;;;;;;19.17;8.02;;;;;;;12.58;65.57;102096.59;5093280;28;20042;-64
2021/10/17 09:33:18;;;;;;;16.50;8.50;;;;;;;12.55;65.87;102098.31;5093811;28;20120;-64
2021/10/17 09:35:43;;;;;;;16.73;7.38;;;;;;;12.53;65.75;102098.28;5091836;28;20047;-64
2021/10/17 09:38:09;;;;;;;15.05;7.70;;;;;;;12.57;65.61;102107.13;5095939;28;20025;-64
2021/10/17 09:40:36;;;;;;;18.40;7.72;;;;;;;12.62;65.91;102092.22;5090253;28;20025;-65
2021/10/17 09:43:13;;;;;;;19.08;8.00;;;;;;;12.65;64.94;102103.69;5080327;28;20044;-65
2021/10/17 09:45:40;;;;;;;23.55;7.95;;;;;;;12.77;65.77;102108.19;5090126;28;20053;-63
2021/10/17 09:48:06;;;;;;;18.33;7.68;;;;;;;12.97;65.35;102099.59;5073407;28;20077;-65
2021/10/17 09:50:32;;;;;;;18.77;7.57;;;;;;;13.16;65.27;102098.00;5094889;28;20028;-64
2021/10/17 09:53:00;;;;;;;18.80;8.77;;;;;;;13.34;63.86;102102.53;5092294;28;20043;-64
2021/10/17 09:55:27;;;;;;;14.30;7.75;;;;;;;13.42;62.75;102099.09;5086104;28;20033;-64
2021/10/17 09:57:52;;;;;;;15.25;8.48;;;;;;;13.53;62.65;102096.50;5069809;28;20036;-64
2021/10/17 10:00:18;;;;;;;16.00;8.18;;;;;;;13.55;61.69;102092.09;5085806;28;20088;-64
2021/10/17 10:02:52;;;;;;;15.48;8.07;;;;;;;13.65;61.92;102091.31;5086590;28;20024;-63
2021/10/17 10:05:29;;;;;;;18.60;8.15;;;;;;;13.71;62.04;102081.66;5085049;28;20060;-65
2021/10/17 10:08:03;;;;;;;21.65;8.80;;;;;;;13.76;61.47;102085.19;5086885;28;20195;-64
2021/10/17 10:10:30;;;;;;;18.38;8.68;;;;;;;13.77;61.93;102086.97;5090069;28;20031;-64
2021/10/17 10:12:58;;;;;;;19.73;8.98;;;;;;;13.78;61.12;102086.97;5093422;28;20040;-64
2021/10/17 10:15:24;;;;;;;17.85;8.57;;;;;;;13.90;62.06;102090.53;5089692;28;20121;-64
2021/10/17 10:17:50;;;;;;;15.45;8.25;;;;;;;13.95;62.26;102097.63;5087777;28;20060;-65
2021/10/17 10:20:15;;;;;;;19.83;8.77;;;;;;;14.03;61.46;102095.00;5088893;28;20059;-63
2021/10/17 10:22:44;;;;;;;17.00;8.55;;;;;;;14.02;61.01;102087.94;5091816;28;20064;-62
2021/10/17 10:25:10;;;;;;;17.10;8.15;;;;;;;14.01;60.45;102096.75;5092282;28;20040;-64
2021/10/17 10:27:37;;;;;;;14.73;8.98;;;;;;;14.03;59.90;102085.31;5075830;28;20411;-64
2021/10/17 10:30:20;;;;;;;16.38;8.63;;;;;;;14.04;60.69;102086.19;5090832;28;20047;-65
2021/10/17 10:33:17;;;;;;;19.60;9.68;;;;;;;14.03;60.43;102092.38;5097767;28;20032;-63
2021/10/17 10:36:10;;;;;;;17.48;8.85;;;;;;;13.99;61.66;102095.88;5092788;28;20028;-64
2021/10/17 10:38:53;;;;;;;17.15;8.98;;;;;;;13.97;62.26;102100.25;5094722;28;20102;-63
2021/10/17 10:41:28;;;;;;;16.35;9.82;;;;;;;13.89;61.92;102094.91;5100268;28;20052;-64
2021/10/17 10:44:14;;;;;;;19.65;10.20;;;;;;;13.88;61.98;102094.94;5103260;28;20024;-64
2021/10/17 10:46:41;;;;;;;15.25;9.35;;;;;;;13.81;62.45;102096.66;5105548;28;20028;-63
2021/10/17 10:49:06;;;;;;;23.92;9.55;;;;;;;13.78;63.10;102094.91;5109225;28;20024;-63
2021/10/17 10:51:41;;;;;;;20.45;9.43;;;;;;;13.73;63.22;102086.06;5106963;28;20530;-64
2021/10/17 10:54:27;;;;;;;22.77;10.52;;;;;;;13.70;63.76;102096.59;5105036;28;20020;-64
2021/10/17 10:56:57;;;;;;;19.13;9.43;;;;;;;13.74;62.85;102102.78;5097641;28;20032;-64
2021/10/17 10:59:25;;;;;;;;;;;;;;;13.68;63.87;102094.81;5104565;28;20059;-63
2021/10/17 11:02:09;;;;;;;17.23;8.85;;;;;;;13.71;63.32;102108.94;5107489;28;20423;-64
2021/10/17 11:04:38;;;;;;;19.02;9.20;;;;;;;13.71;63.78;102097.50;5105013;28;20036;-63
2021/10/17 11:07:22;;;;;;;17.50;8.80;;;;;;;13.67;63.62;102091.31;5108610;28;20503;-64
2021/10/17 11:09:48;;;;;;;16.08;8.88;;;;;;;13.62;62.80;102088.63;5106298;28;20028;-65
2021/10/17 11:12:47;;;;;;;18.23;8.57;;;;;;;13.57;63.03;102097.41;5110720;28;20032;-64
2021/10/17 11:15:15;;;;;;;19.38;8.13;;;;;;;13.55;63.22;102093.88;5089138;28;20063;-64